Usk, WA (99180)

10:09 AM PST on January 30, 2015 (GMT -0800)
RAWS FLOWERY TRAIL WA US | Change Station
CLOSE
Current Station
Personal Weather Station
Location: Usk, WA
Elevation: 2680 ft
Nearby Weather Stations

Elev 2680 ft 48.30 °N, 117.41 °W | Updated 39 minutes ago

Overcast
Overcast
28 °F
Feels Like 28 °F
N
0
Wind Variable Wind from North
Gusts 0.0 mph

Today
High -- | Low -- °F
--% Chance of Precip.
Yesterday
High -- | Low -- °F
Precip. -- in
7:20 AM 4:45 PM
Waxing Gibbous, 84% visible
Pressure 30.48 in
Visibility 5.0 miles
Clouds Overcast 300 ft
Windchill 28 °F
Dew Point 28 °F
Humidity 99%
Rainfall 0.00 in
Snow Depth Not available.
UV 0 out of 12
Pollen .40 out of 12
Air Quality Not available.
Flu Activity Not available.
METAR KDEW 301753Z AUTO 08005KT 5SM BR OVC003 M02/M03 A3039 RMK AO2 SLP321 I1001 I6001 T10221028 11022 21033 52007

More Conditions Fewer Conditions

Pressure 30.48 in
Visibility 5.0 miles
Clouds Overcast 300 ft
Windchill 28 °F
Dew Point 28 °F
Humidity 99%
Rainfall 0.00 in
Snow Depth Not available.
UV 0 out of 12
Pollen .40 out of 12
Air Quality Not available.
Flu Activity Not available.
METAR KDEW 301753Z AUTO 08005KT 5SM BR OVC003 M02/M03 A3039 RMK AO2 SLP321 I1001 I6001 T10221028 11022 21033 52007

More Conditions Fewer Conditions

10-Day Weather Forecast

Almanac

Astronomy

Jan. 30, 2015 Rise Set
Actual Time
Civil Twilight
Nautical Twilight
Astronomical Twilight
Moon
Length of Visible Light
Length of Day
Tomorrow will be .
, % of the Moon is Illuminated

Today's Extremes

State Highs State Lows

Community

WunderPhotos

Upload Photos

1,791,845 photos uploaded!

WunderBlogs® & News

Nearby

Air Quality

  Air Quality AQ Index Pollutant
Not available.

Snow Depth

Station Depth Elevation

Earthquake Activity

City Distance Mag. Time & Date
Minimum magnitude displayed is 2.5.

Coastal Water Temperatures

Place Temperature

Nearby Weather Stations